Winters Aire Park Airport

CFY4 · 艾伯塔, 加拿大

使用的METAR站距离机场15 NM。
罗盘
风向 的 风向 的 风向 到 风向 040° Winters Aire Park Airport 9/27
风: 8 kt, 3 beaufort

2 kt

8 kt
改变
0 ft 6.000 12.000 18.000 24.000 30.000
Cloud Cloud Cloud Cloud Cloud Cloud
BKN 7.500
Cloud Cloud Cloud Cloud Cloud Cloud
BKN 22.000
METAR CYYC 151600Z 04008KT 340V090 15SM BKN075 BKN220 14/04 A2976 RMK AC5CI2 SLP084 DENSITY ALT 4500FT

METAR Winters Aire Park Airport - CFY4

Winters Aire Park Airport是,加拿大中的小机场。 该机场位于纬度50,90426和经度-113,79637。 该机场有2条跑道: 9/27 和 16/34. 该机场的伪ICAO代码为CFY4。 机场在Edmonton FIR中。

该航空气象观测是针对Calgary International Airport在2024年6月15日 10:00, 当地时间进行的。

机场观察

风向为040°,速度为8 kt。 风向在340°和090°之间变化。

可见度为15 mi。

有碎云在7.500 ft的高度 和 碎云在22.000 ft的高度。 破损或更高的上限为7.500 ft。

温度和风寒是14 °C。 露点为4 °C,相对湿度为51%。 海平面上的气压为29,76 inHg (QNH)。

白天

今天,太阳从05:20升起,在21:51降落。 这适用于Winters Aire Park Airport,世界夏令时可能有所不同。 当地时间与世界标准时间之间的时差为-6 小时。 夏令时目前正在进行中。

公司介绍

我们没有关于这个机场的公司信息。

体会

到Vliegles.nl去找飞行课程,跳伞和其他飞行体验。 浏览页面,了解Winters Aire Park Airport附近所有可用的活动。 你也可以使用搜索功能来寻找你所在地附近的特定飞行课程、跳伞或其他飞行体验。

跑道

Id 标题 侧风 逆风 侧风 %
9/27 112°-292° 8 kt 2 kt 95 %
16/34 180°-360° 5 kt 6 kt 64 %

逆风成分最大的方向会被突出显示,并用于横风计算。 这并不一定意味着这个方向在使用。

乌云

7.500 ft BKN 碎云
22.000 ft BKN 碎云

温度 & 天气

温度 14 °C
露点 4 °C
相对湿度 51%
Kp-index 1 (0-9)

评论

SLP084海平面压力为29,78 inHg (29,78 inHg)
AC5CI2 DENSITY ALT 4500FT

白天

日出
05:20
中午
13:36
日落
21:53 (10:45)

小工具

你想在你的网站上有一个关于Winters Aire Park Airport的当前航空天气(METAR)的小部件吗?

显示HTML代码
报告变更